Eminence, Indiana
Current Conditions -  °F | °C
As of 8:55 AM on Monday 20 Oct 2014 (Local Time) from K4I7 Reporting Station
Broken Clouds Broken Clouds  
Wind Chill: 50°   Ceiling: 9000
Heat Index: 50°   Visibility: 7mi
Dew Point: 45°   Wind: 7mph
Humidity: 82%   Direction: 190°S
Pressure: 29.93"   Gusts: NA
Location:  39.52°N, 86.64°W
Report Text: K4I7 201255Z AUTO 19006KT 7SM BKN090 BKN120 10/07 A2993 RMK AO2
Loading
Personal Weather Stations






























Interactive Weather Map
Tropical Storm Tracking
New forecast layout! Learn more

10-Day Weather Forecast

Advertisements
Track Severe Weather on mobile